Time;durP1;ratioP1;P1;durP2;ratioP2;P2;SDS_P1;SDS_P2;PMS_P1;PMS_P2;Temp;Humidity;BMP_temperature;BMP_pressure;BME280_temperature;BME280_humidity;BME280_pressure;Samples;Min_cycle;Max_cycle;Signal;HPM_P1;HPM_P2
2024/02/07 00:02:01;;;;;;;;;;;8.20;84.10;;;;;;5016434;28;86677;-60
2024/02/07 00:04:27;;;;;;;;;;;8.20;84.00;;;;;;5017393;28;87198;-61
2024/02/07 00:06:52;;;;;;;;;;;8.20;84.00;;;;;;5015638;28;86882;-60
2024/02/07 00:09:18;;;;;;;;;;;8.20;84.10;;;;;;5018782;28;88493;-60
2024/02/07 00:11:43;;;;;;;;;;;8.20;84.00;;;;;;5018053;28;87290;-61
2024/02/07 00:14:09;;;;;;;;;;;8.20;84.20;;;;;;5016397;28;86873;-60
2024/02/07 00:16:34;;;;;;;;;;;8.10;84.70;;;;;;5017648;28;88388;-61
2024/02/07 00:19:37;;;;;;;;;;;8.10;84.10;;;;;;5016886;28;87040;-60
2024/02/07 00:22:03;;;;;;;;;;;8.10;84.00;;;;;;5019333;28;87561;-60
2024/02/07 00:24:29;;;;;;;;;;;8.10;83.90;;;;;;5015523;28;87119;-60
2024/02/07 00:26:54;;;;;;;;;;;8.10;84.00;;;;;;5015591;28;86826;-60
2024/02/07 00:29:20;;;;;;;;;;;8.10;84.10;;;;;;5015433;28;87513;-60
2024/02/07 00:31:45;;;;;;;;;;;8.10;84.00;;;;;;5019088;28;87093;-60
2024/02/07 00:34:11;;;;;;;;;;;8.10;84.00;;;;;;5014284;28;87879;-61
2024/02/07 00:36:38;;;;;;;;;;;8.10;84.00;;;;;;5017757;28;87484;-60
2024/02/07 00:39:04;;;;;;;;;;;8.00;83.90;;;;;;5018489;28;87202;-59
2024/02/07 00:41:30;;;;;;;;;;;8.00;83.90;;;;;;5018178;28;87338;-60
2024/02/07 00:46:59;;;;;;;;;;;8.00;83.80;;;;;;5016280;28;86851;-61
2024/02/07 00:49:24;;;;;;;;;;;8.00;83.80;;;;;;5013878;28;87592;-60
2024/02/07 00:51:50;;;;;;;;;;;8.00;83.90;;;;;;5017370;28;86334;-61
2024/02/07 00:54:15;;;;;;;;;;;8.00;83.80;;;;;;5016751;28;86854;-61
2024/02/07 00:56:41;;;;;;;;;;;7.90;83.60;;;;;;5017153;28;87440;-61
2024/02/07 00:59:06;;;;;;;;;;;7.90;83.80;;;;;;5018621;28;87992;-60
2024/02/07 01:01:32;;;;;;;;;;;7.90;83.80;;;;;;5017306;28;87591;-61
2024/02/07 01:03:57;;;;;;;;;;;7.90;83.80;;;;;;5014694;28;86887;-61
2024/02/07 01:06:23;;;;;;;;;;;7.90;83.60;;;;;;5012699;28;86972;-60
2024/02/07 01:08:48;;;;;;;;;;;7.90;83.70;;;;;;5012461;28;87433;-61
2024/02/07 01:11:14;;;;;;;;;;;7.90;83.60;;;;;;5013154;28;87094;-60
2024/02/07 01:13:39;;;;;;;;;;;7.90;83.70;;;;;;5015083;28;87097;-61
2024/02/07 01:16:05;;;;;;;;;;;7.90;83.70;;;;;;5015317;28;86171;-60
2024/02/07 01:18:31;;;;;;;;;;;7.90;83.60;;;;;;5014837;28;86974;-61
2024/02/07 01:20:56;;;;;;;;;;;7.90;83.70;;;;;;5018480;28;86951;-60
2024/02/07 01:23:22;;;;;;;;;;;7.90;83.60;;;;;;5018104;28;88546;-60
2024/02/07 01:25:47;;;;;;;;;;;7.80;83.40;;;;;;5014670;28;86999;-61
2024/02/07 01:28:13;;;;;;;;;;;7.90;83.60;;;;;;5017252;28;87370;-61
2024/02/07 01:30:39;;;;;;;;;;;7.80;83.50;;;;;;5015252;28;87051;-60
2024/02/07 01:33:06;;;;;;;;;;;7.80;83.60;;;;;;5015972;28;87113;-60
2024/02/07 01:35:32;;;;;;;;;;;7.80;83.40;;;;;;5015362;28;88488;-60
2024/02/07 01:38:07;;;;;;;;;;;7.80;83.60;;;;;;5016965;28;86992;-60
2024/02/07 01:40:42;;;;;;;;;;;7.80;83.60;;;;;;5016247;28;87037;-60
2024/02/07 01:43:13;;;;;;;;;;;7.80;83.60;;;;;;5012525;28;87458;-59
2024/02/07 01:45:39;;;;;;;;;;;7.80;83.40;;;;;;5013085;28;86988;-60
2024/02/07 01:48:08;;;;;;;;;;;7.70;83.50;;;;;;5015987;28;89559;-59
2024/02/07 01:50:38;;;;;;;;;;;7.70;83.40;;;;;;5013989;28;86985;-61
2024/02/07 01:53:05;;;;;;;;;;;7.70;83.40;;;;;;5012611;28;87189;-61
2024/02/07 01:55:32;;;;;;;;;;;7.70;83.30;;;;;;5013545;28;88463;-60
2024/02/07 01:58:00;;;;;;;;;;;7.70;83.40;;;;;;5015130;28;87036;-60
2024/02/07 02:00:26;;;;;;;;;;;7.70;83.20;;;;;;5015306;28;88328;-60
2024/02/07 02:02:52;;;;;;;;;;;7.70;83.30;;;;;;5013185;28;87416;-60
2024/02/07 02:05:17;;;;;;;;;;;7.70;83.30;;;;;;5019289;28;86076;-60
2024/02/07 02:07:44;;;;;;;;;;;7.60;83.10;;;;;;5011779;28;87551;-60
2024/02/07 02:10:10;;;;;;;;;;;7.60;83.20;;;;;;5013419;28;87723;-60
2024/02/07 02:12:36;;;;;;;;;;;7.60;83.20;;;;;;5014119;28;87967;-61
2024/02/07 02:15:03;;;;;;;;;;;7.60;83.00;;;;;;5012717;28;87382;-60
2024/02/07 02:17:28;;;;;;;;;;;7.60;83.20;;;;;;5015016;28;87070;-60
2024/02/07 02:19:54;;;;;;;;;;;7.60;83.20;;;;;;5012367;28;86978;-61
2024/02/07 02:22:32;;;;;;;;;;;7.60;83.60;;;;;;5015903;28;87501;-60
2024/02/07 02:25:06;;;;;;;;;;;7.60;83.10;;;;;;5017494;28;86766;-60
2024/02/07 02:27:45;;;;;;;;;;;7.60;82.90;;;;;;5019903;28;87038;-60
2024/02/07 02:30:19;;;;;;;;;;;7.60;83.00;;;;;;5016165;28;86069;-59
2024/02/07 02:32:46;;;;;;;;;;;7.50;83.00;;;;;;5017559;28;87215;-61
2024/02/07 02:35:13;;;;;;;;;;;7.50;82.90;;;;;;5020863;28;87318;-60
2024/02/07 02:37:39;;;;;;;;;;;7.50;82.90;;;;;;5015880;28;87786;-60
2024/02/07 02:40:07;;;;;;;;;;;7.50;82.90;;;;;;5017231;28;87089;-59
2024/02/07 02:42:33;;;;;;;;;;;7.50;83.00;;;;;;5019879;28;87450;-60
2024/02/07 02:44:59;;;;;;;;;;;7.50;83.00;;;;;;5017945;28;86974;-61
2024/02/07 02:47:25;;;;;;;;;;;7.50;82.90;;;;;;5019927;28;86904;-60
2024/02/07 02:49:50;;;;;;;;;;;7.50;82.90;;;;;;5020669;28;87448;-60
2024/02/07 02:52:16;;;;;;;;;;;7.50;83.00;;;;;;5019725;28;87023;-61
2024/02/07 02:54:43;;;;;;;;;;;7.50;82.90;;;;;;5018011;28;86651;-57
2024/02/07 02:57:09;;;;;;;;;;;7.40;82.80;;;;;;5020972;28;87175;-61
2024/02/07 02:59:35;;;;;;;;;;;7.50;82.90;;;;;;5019605;28;86786;-61
2024/02/07 03:02:08;;;;;;;;;;;7.40;83.00;;;;;;5015889;28;88341;-60
2024/02/07 03:04:41;;;;;;;;;;;7.40;82.90;;;;;;5018875;28;86799;-60
2024/02/07 03:07:36;;;;;;;;;;;7.40;82.80;;;;;;5017287;28;86920;-60
2024/02/07 03:09:58;;;;;;;;;;;7.40;82.80;;;;;;5021712;28;87507;-60
2024/02/07 03:12:25;;;;;;;;;;;7.40;82.90;;;;;;5017856;28;87011;-61
2024/02/07 03:14:50;;;;;;;;;;;7.40;82.80;;;;;;5018916;28;87716;-60
2024/02/07 03:17:16;;;;;;;;;;;7.30;82.90;;;;;;5017455;28;87005;-60
2024/02/07 03:19:41;;;;;;;;;;;7.30;83.00;;;;;;5019910;28;86740;-61
2024/02/07 03:22:07;;;;;;;;;;;7.30;82.90;;;;;;5016048;28;87383;-60
2024/02/07 03:24:33;;;;;;;;;;;7.30;82.80;;;;;;5017331;28;86890;-61
2024/02/07 03:26:58;;;;;;;;;;;7.30;82.70;;;;;;5018411;28;87918;-60
2024/02/07 03:29:25;;;;;;;;;;;7.30;82.90;;;;;;5017068;28;87553;-61
2024/02/07 03:31:53;;;;;;;;;;;7.30;82.90;;;;;;5019037;28;86993;-60
2024/02/07 03:34:20;;;;;;;;;;;7.30;82.90;;;;;;5018242;28;88490;-60
2024/02/07 03:36:46;;;;;;;;;;;7.20;82.90;;;;;;5016484;28;87098;-60
2024/02/07 03:39:13;;;;;;;;;;;7.20;82.80;;;;;;5019739;28;86899;-61
2024/02/07 03:41:41;;;;;;;;;;;7.20;82.90;;;;;;5016746;28;87511;-61
2024/02/07 03:44:12;;;;;;;;;;;7.20;82.80;;;;;;5016335;28;86319;-60
2024/02/07 03:46:40;;;;;;;;;;;7.20;82.70;;;;;;5016571;28;87263;-60
2024/02/07 03:49:07;;;;;;;;;;;7.20;82.80;;;;;;5014169;28;87460;-60
2024/02/07 03:54:18;;;;;;;;;;;7.20;82.70;;;;;;5014109;28;87401;-59
2024/02/07 03:56:44;;;;;;;;;;;7.10;82.80;;;;;;5015748;28;87198;-61
2024/02/07 03:59:10;;;;;;;;;;;7.10;82.80;;;;;;5019429;28;87005;-60
2024/02/07 04:01:35;;;;;;;;;;;7.10;82.70;;;;;;5011152;28;87505;-60
2024/02/07 04:04:01;;;;;;;;;;;7.10;82.80;;;;;;5019396;28;87072;-60
2024/02/07 04:06:28;;;;;;;;;;;7.10;82.80;;;;;;5015768;28;87758;-61
2024/02/07 04:08:55;;;;;;;;;;;7.10;82.80;;;;;;5016089;28;86748;-60
2024/02/07 05:16:25;;;;;;;;;;;6.70;82.90;;;;;;5018683;28;87015;-59
2024/02/07 05:18:50;;;;;;;;;;;6.70;82.90;;;;;;5014650;28;86918;-60
2024/02/07 05:21:17;;;;;;;;;;;6.70;82.90;;;;;;5018412;28;87609;-60
2024/02/07 05:23:42;;;;;;;;;;;6.70;82.90;;;;;;5010752;28;87024;-61
2024/02/07 05:26:09;;;;;;;;;;;6.70;82.90;;;;;;5021198;28;86874;-60
2024/02/07 05:28:34;;;;;;;;;;;6.70;82.90;;;;;;5014983;28;86418;-60
2024/02/07 05:31:00;;;;;;;;;;;6.70;83.00;;;;;;5014518;28;87010;-61
2024/02/07 05:33:26;;;;;;;;;;;6.60;82.90;;;;;;5012540;28;87401;-60
2024/02/07 05:35:52;;;;;;;;;;;6.60;82.90;;;;;;5010619;28;87963;-61
2024/02/07 05:38:18;;;;;;;;;;;6.60;83.00;;;;;;5014226;28;87870;-60
2024/02/07 05:40:43;;;;;;;;;;;6.60;83.00;;;;;;5009976;28;87501;-60
2024/02/07 05:43:09;;;;;;;;;;;6.60;82.90;;;;;;5017863;28;87029;-61
2024/02/07 05:45:34;;;;;;;;;;;6.60;83.00;;;;;;5014116;28;87828;-60
2024/02/07 05:48:00;;;;;;;;;;;6.60;83.00;;;;;;5012893;28;86893;-61
2024/02/07 05:50:27;;;;;;;;;;;6.60;82.90;;;;;;5017805;28;87901;-60
2024/02/07 05:52:53;;;;;;;;;;;6.60;82.90;;;;;;5009429;28;86305;-61
2024/02/07 05:55:19;;;;;;;;;;;6.50;82.90;;;;;;5017595;28;87221;-59
2024/02/07 05:57:47;;;;;;;;;;;6.50;82.80;;;;;;5017126;28;86873;-60
2024/02/07 06:00:14;;;;;;;;;;;6.50;82.90;;;;;;5016695;28;89459;-60
2024/02/07 06:02:40;;;;;;;;;;;6.50;83.00;;;;;;5020665;28;87011;-60
2024/02/07 06:05:06;;;;;;;;;;;6.50;83.00;;;;;;5014182;28;86970;-61
2024/02/07 06:07:33;;;;;;;;;;;6.50;83.00;;;;;;5014537;28;88689;-61
2024/02/07 06:09:58;;;;;;;;;;;6.50;83.60;;;;;;5024379;28;86990;-60
2024/02/07 06:12:24;;;;;;;;;;;6.50;83.00;;;;;;5018116;28;87488;-60
2024/02/07 06:14:50;;;;;;;;;;;6.40;82.90;;;;;;5019953;28;87113;-60
2024/02/07 06:17:15;;;;;;;;;;;6.40;82.90;;;;;;5018021;28;86369;-60
2024/02/07 06:19:41;;;;;;;;;;;6.40;82.90;;;;;;5013407;28;87750;-60
2024/02/07 06:22:06;;;;;;;;;;;6.40;82.90;;;;;;5017244;28;87187;-60
2024/02/07 06:24:32;;;;;;;;;;;6.40;82.90;;;;;;5018824;28;87874;-60
2024/02/07 06:26:58;;;;;;;;;;;6.40;82.80;;;;;;5013733;28;87500;-60
2024/02/07 06:29:23;;;;;;;;;;;6.40;82.80;;;;;;5019775;28;87010;-61
2024/02/07 06:31:49;;;;;;;;;;;6.40;82.80;;;;;;5019824;28;87042;-60
2024/02/07 06:34:15;;;;;;;;;;;6.40;82.80;;;;;;5015450;28;86989;-60
2024/02/07 06:36:40;;;;;;;;;;;6.40;82.90;;;;;;5019657;28;86888;-60
2024/02/07 06:39:06;;;;;;;;;;;6.40;82.90;;;;;;5012930;28;87481;-60
2024/02/07 06:41:31;;;;;;;;;;;6.40;82.90;;;;;;5019153;28;87468;-60
2024/02/07 06:43:57;;;;;;;;;;;6.40;82.90;;;;;;5015948;28;87177;-59
2024/02/07 06:46:23;;;;;;;;;;;6.40;82.80;;;;;;5017210;28;88421;-60
2024/02/07 06:48:49;;;;;;;;;;;6.40;82.90;;;;;;5019884;28;87929;-60
2024/02/07 06:51:14;;;;;;;;;;;6.30;82.80;;;;;;5012458;28;88903;-60
2024/02/07 06:53:40;;;;;;;;;;;6.40;82.90;;;;;;5019730;28;87626;-61
2024/02/07 06:56:06;;;;;;;;;;;6.40;82.80;;;;;;5018347;28;87968;-60
2024/02/07 06:58:32;;;;;;;;;;;6.30;82.80;;;;;;5019730;28;87352;-60
2024/02/07 07:00:58;;;;;;;;;;;6.30;82.80;;;;;;5016961;28;87178;-57
2024/02/07 07:03:26;;;;;;;;;;;6.30;82.80;;;;;;5014560;28;87048;-60
2024/02/07 07:05:52;;;;;;;;;;;6.30;82.80;;;;;;5015134;28;86746;-59
2024/02/07 07:08:18;;;;;;;;;;;6.40;82.80;;;;;;5018535;28;86977;-61
2024/02/07 07:10:43;;;;;;;;;;;6.30;82.80;;;;;;5017968;28;87864;-61
2024/02/07 07:13:09;;;;;;;;;;;6.30;82.80;;;;;;5018874;28;88421;-60
2024/02/07 07:15:34;;;;;;;;;;;6.30;82.90;;;;;;5020225;28;86857;-61
2024/02/07 07:18:00;;;;;;;;;;;6.30;82.90;;;;;;5019827;28;87008;-59
2024/02/07 07:20:30;;;;;;;;;;;6.30;82.80;;;;;;5016618;28;87446;-61
2024/02/07 07:22:56;;;;;;;;;;;6.30;82.80;;;;;;5017770;28;87098;-60
2024/02/07 07:25:22;;;;;;;;;;;6.30;82.90;;;;;;5017846;28;87464;-61
2024/02/07 07:27:47;;;;;;;;;;;6.30;82.90;;;;;;5017872;28;87021;-61
2024/02/07 07:30:13;;;;;;;;;;;6.30;82.90;;;;;;5014330;28;86347;-61
2024/02/07 07:32:39;;;;;;;;;;;6.30;82.90;;;;;;5013757;28;87072;-61
2024/02/07 07:35:04;;;;;;;;;;;6.30;82.90;;;;;;5020355;28;87054;-60
2024/02/07 07:37:30;;;;;;;;;;;6.30;82.90;;;;;;5017945;28;88290;-61
2024/02/07 07:39:57;;;;;;;;;;;6.30;82.90;;;;;;5017252;28;87037;-61
2024/02/07 07:42:23;;;;;;;;;;;6.30;82.80;;;;;;5016054;28;87939;-60
2024/02/07 07:44:48;;;;;;;;;;;6.30;82.90;;;;;;5012038;28;87542;-61
2024/02/07 07:47:14;;;;;;;;;;;6.30;82.90;;;;;;5017339;28;87021;-60
2024/02/07 07:49:41;;;;;;;;;;;6.30;82.90;;;;;;5018417;28;86909;-60
2024/02/07 07:52:06;;;;;;;;;;;6.30;83.00;;;;;;5017347;28;87452;-60
2024/02/07 07:54:32;;;;;;;;;;;6.30;83.00;;;;;;5014836;28;86284;-59
2024/02/07 07:56:59;;;;;;;;;;;6.30;83.00;;;;;;5019669;28;86937;-61
2024/02/07 07:59:24;;;;;;;;;;;6.20;83.00;;;;;;5017996;28;87031;-60
2024/02/07 08:02:00;;;;;;;;;;;6.20;83.00;;;;;;5017026;28;87856;-61
2024/02/07 08:04:25;;;;;;;;;;;6.20;83.00;;;;;;5016653;28;87447;-60
2024/02/07 08:06:51;;;;;;;;;;;6.20;83.10;;;;;;5013150;28;87491;-60
2024/02/07 08:09:18;;;;;;;;;;;6.30;83.20;;;;;;5017009;28;88200;-60
2024/02/07 08:11:43;;;;;;;;;;;6.20;83.10;;;;;;5018515;28;87468;-60
2024/02/07 08:14:09;;;;;;;;;;;6.20;83.20;;;;;;5009844;28;87030;-60
2024/02/07 08:16:35;;;;;;;;;;;6.20;83.20;;;;;;5018795;28;87104;-60
2024/02/07 08:19:00;;;;;;;;;;;6.20;83.20;;;;;;5017708;28;86737;-60
2024/02/07 08:21:26;;;;;;;;;;;6.20;83.20;;;;;;5014561;28;87334;-59
2024/02/07 08:23:51;;;;;;;;;;;6.20;83.30;;;;;;5013822;28;87405;-61
2024/02/07 08:26:17;;;;;;;;;;;6.20;83.40;;;;;;5017679;28;87926;-61
2024/02/07 08:28:42;;;;;;;;;;;6.20;83.50;;;;;;5014192;28;87731;-60
2024/02/07 08:31:11;;;;;;;;;;;6.20;83.40;;;;;;5010469;28;88014;-60
2024/02/07 08:33:37;;;;;;;;;;;6.20;83.40;;;;;;5015901;28;87040;-60
2024/02/07 08:36:03;;;;;;;;;;;6.20;83.30;;;;;;5017634;28;87013;-61
2024/02/07 08:38:28;;;;;;;;;;;6.20;83.50;;;;;;5013820;28;87638;-60
2024/02/07 08:40:54;;;;;;;;;;;6.20;83.40;;;;;;5018708;28;88135;-61
2024/02/07 08:43:23;;;;;;;;;;;6.20;84.00;;;;;;5018523;28;87709;-61
2024/02/07 08:45:49;;;;;;;;;;;6.20;83.40;;;;;;5012178;28;87072;-61
2024/02/07 08:48:14;;;;;;;;;;;6.20;83.30;;;;;;5015262;28;86998;-61
2024/02/07 08:50:40;;;;;;;;;;;6.20;83.40;;;;;;5012507;28;88428;-60
2024/02/07 08:53:07;;;;;;;;;;;6.20;83.50;;;;;;5012510;28;87836;-59
2024/02/07 08:55:33;;;;;;;;;;;6.20;83.40;;;;;;5018958;28;88036;-61
2024/02/07 08:57:59;;;;;;;;;;;6.20;83.40;;;;;;5014655;28;88437;-60
2024/02/07 09:00:24;;;;;;;;;;;6.20;83.40;;;;;;5017547;28;87051;-60
2024/02/07 09:02:52;;;;;;;;;;;6.30;83.50;;;;;;5021462;28;87276;-60
2024/02/07 09:05:19;;;;;;;;;;;6.20;83.50;;;;;;5014808;28;86905;-61
2024/02/07 09:07:45;;;;;;;;;;;6.30;83.50;;;;;;5018847;28;87930;-60
2024/02/07 09:10:12;;;;;;;;;;;6.30;83.60;;;;;;5015104;28;87623;-60
2024/02/07 09:12:37;;;;;;;;;;;6.20;83.60;;;;;;5018316;28;87009;-60
2024/02/07 09:15:03;;;;;;;;;;;6.20;83.60;;;;;;5012062;28;88520;-60
2024/02/07 09:17:31;;;;;;;;;;;6.20;83.70;;;;;;5014944;28;87507;-60
2024/02/07 09:19:56;;;;;;;;;;;6.20;83.80;;;;;;5017748;28;87021;-60
2024/02/07 09:22:22;;;;;;;;;;;6.20;83.80;;;;;;5016563;28;87109;-60
2024/02/07 09:24:47;;;;;;;;;;;6.20;83.80;;;;;;5018515;28;86944;-60
2024/02/07 09:27:13;;;;;;;;;;;6.20;83.80;;;;;;5018014;28;87045;-60
2024/02/07 09:29:39;;;;;;;;;;;6.20;83.80;;;;;;5018316;28;87519;-59
2024/02/07 09:32:04;;;;;;;;;;;6.30;83.90;;;;;;5017332;28;86313;-60
2024/02/07 09:34:30;;;;;;;;;;;6.30;83.80;;;;;;5021628;28;86931;-60
2024/02/07 09:36:56;;;;;;;;;;;6.30;83.80;;;;;;5018494;28;87503;-60
2024/02/07 09:39:22;;;;;;;;;;;6.30;83.90;;;;;;5016554;28;87982;-60
2024/02/07 09:41:49;;;;;;;;;;;6.30;83.90;;;;;;5016627;28;88980;-58
2024/02/07 09:44:16;;;;;;;;;;;6.30;84.40;;;;;;5022955;28;88373;-60
2024/02/07 09:46:44;;;;;;;;;;;6.30;83.80;;;;;;5017588;28;87678;-61
2024/02/07 09:49:14;;;;;;;;;;;6.30;83.90;;;;;;5018954;28;87224;-60
2024/02/07 09:51:40;;;;;;;;;;;6.30;83.80;;;;;;5019846;28;87001;-61
2024/02/07 09:54:08;;;;;;;;;;;6.30;83.90;;;;;;5019612;28;87923;-60
2024/02/07 09:56:34;;;;;;;;;;;6.20;83.70;;;;;;5019517;28;87089;-60
2024/02/07 09:59:01;;;;;;;;;;;6.30;83.80;;;;;;5017844;28;87724;-61
2024/02/07 10:01:28;;;;;;;;;;;6.30;83.80;;;;;;5017574;28;87154;-60
2024/02/07 10:03:56;;;;;;;;;;;6.30;83.80;;;;;;5012791;28;88347;-61
2024/02/07 10:06:22;;;;;;;;;;;6.30;83.80;;;;;;5021449;28;87013;-61
2024/02/07 10:08:50;;;;;;;;;;;6.30;83.80;;;;;;5018134;28;87501;-61
2024/02/07 10:11:16;;;;;;;;;;;6.30;83.80;;;;;;5017532;28;87054;-60
2024/02/07 10:13:42;;;;;;;;;;;6.30;83.90;;;;;;5017560;28;86730;-60
2024/02/07 10:16:08;;;;;;;;;;;6.30;83.90;;;;;;5016469;28;87435;-60
2024/02/07 10:18:34;;;;;;;;;;;6.30;83.90;;;;;;5016291;28;87020;-60
2024/02/07 10:21:00;;;;;;;;;;;6.30;84.00;;;;;;5014776;28;88064;-60
2024/02/07 10:23:26;;;;;;;;;;;6.30;84.00;;;;;;5016202;28;90593;-60
2024/02/07 10:25:52;;;;;;;;;;;6.30;83.90;;;;;;5018365;28;87001;-60
2024/02/07 10:28:18;;;;;;;;;;;6.30;84.00;;;;;;5022587;28;87890;-60
2024/02/07 10:30:54;;;;;;;;;;;6.30;84.20;;;;;;5015749;28;87087;-60
2024/02/07 10:33:19;;;;;;;;;;;6.30;84.10;;;;;;5018268;28;86978;-60
2024/02/07 10:35:47;;;;;;;;;;;6.30;84.20;;;;;;5021212;28;87435;-60
2024/02/07 10:38:12;;;;;;;;;;;6.30;84.10;;;;;;5012982;28;87007;-60
2024/02/07 10:40:39;;;;;;;;;;;6.30;84.10;;;;;;5017588;28;87793;-60
2024/02/07 10:43:06;;;;;;;;;;;6.40;84.30;;;;;;5015344;28;88578;-60
2024/02/07 10:45:32;;;;;;;;;;;6.40;84.30;;;;;;5012810;28;86279;-61
2024/02/07 10:47:57;;;;;;;;;;;6.40;84.50;;;;;;5018669;28;86746;-60
2024/02/07 10:50:23;;;;;;;;;;;6.40;84.50;;;;;;5019489;28;87092;-59
2024/02/07 10:52:49;;;;;;;;;;;6.40;84.50;;;;;;5018929;28;87709;-60
2024/02/07 10:55:16;;;;;;;;;;;6.40;84.60;;;;;;5018693;28;88572;-60
2024/02/07 10:57:44;;;;;;;;;;;6.40;84.60;;;;;;5018352;28;87046;-59
2024/02/07 11:00:11;;;;;;;;;;;6.40;84.80;;;;;;5015936;28;87010;-60
2024/02/07 11:02:36;;;;;;;;;;;6.40;84.50;;;;;;5018230;28;88164;-60
2024/02/07 11:05:02;;;;;;;;;;;6.40;85.10;;;;;;5015031;28;87050;-60
2024/02/07 11:07:28;;;;;;;;;;;6.40;84.90;;;;;;5018794;28;87115;-60
2024/02/07 11:09:54;;;;;;;;;;;6.50;85.00;;;;;;5018979;28;86808;-60
2024/02/07 11:12:20;;;;;;;;;;;6.50;85.10;;;;;;5020489;28;87008;-60
2024/02/07 11:14:46;;;;;;;;;;;6.50;85.10;;;;;;5011818;28;88582;-60
2024/02/07 11:17:12;;;;;;;;;;;6.50;85.30;;;;;;5011477;28;87926;-60
2024/02/07 11:19:38;;;;;;;;;;;6.50;85.50;;;;;;5013762;28;88793;-60
2024/02/07 11:22:05;;;;;;;;;;;6.50;85.50;;;;;;5016417;28;87386;-61
2024/02/07 11:24:31;;;;;;;;;;;6.50;85.30;;;;;;5018835;28;86978;-61
2024/02/07 11:26:56;;;;;;;;;;;6.50;85.30;;;;;;5017842;28;87793;-60
2024/02/07 11:29:23;;;;;;;;;;;6.50;85.30;;;;;;5018404;28;87401;-60
2024/02/07 11:31:52;;;;;;;;;;;6.50;85.50;;;;;;5020335;28;86908;-60
2024/02/07 11:34:19;;;;;;;;;;;6.50;85.40;;;;;;5019218;28;86764;-60
2024/02/07 11:36:51;;;;;;;;;;;6.50;85.30;;;;;;5017276;28;86843;-60
2024/02/07 11:39:17;;;;;;;;;;;6.60;85.50;;;;;;5013259;28;86898;-61
2024/02/07 11:41:45;;;;;;;;;;;6.60;85.70;;;;;;5014941;28;88474;-60
2024/02/07 11:44:11;;;;;;;;;;;6.60;85.60;;;;;;5012827;28;87109;-61
2024/02/07 11:46:47;;;;;;;;;;;6.60;85.80;;;;;;5014897;28;86972;-60
2024/02/07 11:49:15;;;;;;;;;;;6.60;85.90;;;;;;5015798;28;86897;-60
2024/02/07 11:51:41;;;;;;;;;;;6.60;85.70;;;;;;5017997;28;87072;-60
2024/02/07 11:54:07;;;;;;;;;;;6.70;85.70;;;;;;5019779;28;87023;-59
2024/02/07 11:56:32;;;;;;;;;;;6.70;85.90;;;;;;5013479;28;86967;-60
2024/02/07 11:59:00;;;;;;;;;;;6.70;86.00;;;;;;5012867;28;87862;-61
2024/02/07 12:01:25;;;;;;;;;;;6.70;86.00;;;;;;5014172;28;87471;-60
2024/02/07 12:03:55;;;;;;;;;;;6.70;86.00;;;;;;5018008;28;86939;-61
2024/02/07 12:06:20;;;;;;;;;;;6.70;86.10;;;;;;5016439;28;88017;-60
2024/02/07 12:08:46;;;;;;;;;;;6.70;86.10;;;;;;5018043;28;87502;-60
2024/02/07 12:11:12;;;;;;;;;;;6.70;86.20;;;;;;5017082;28;87018;-61
2024/02/07 12:13:38;;;;;;;;;;;6.70;86.20;;;;;;5018457;28;86914;-60
2024/02/07 12:16:04;;;;;;;;;;;6.70;86.30;;;;;;5015988;28;88282;-61
2024/02/07 12:18:29;;;;;;;;;;;6.80;86.40;;;;;;5012895;28;87014;-60
2024/02/07 12:21:00;;;;;;;;;;;6.80;86.40;;;;;;5016621;28;87449;-60
2024/02/07 12:23:25;;;;;;;;;;;6.80;86.40;;;;;;5018823;28;86268;-61
2024/02/07 12:26:00;;;;;;;;;;;6.80;86.40;;;;;;5012197;28;87015;-60
2024/02/07 12:28:26;;;;;;;;;;;6.80;86.40;;;;;;5011256;28;88634;-61
2024/02/07 12:30:55;;;;;;;;;;;6.80;86.60;;;;;;5014952;28;87850;-60
2024/02/07 12:33:22;;;;;;;;;;;6.80;86.70;;;;;;5018251;28;88966;-60
2024/02/07 12:35:54;;;;;;;;;;;6.90;86.60;;;;;;5012937;28;88468;-61
2024/02/07 12:38:20;;;;;;;;;;;6.90;86.70;;;;;;5016376;28;86991;-60
2024/02/07 12:40:47;;;;;;;;;;;6.90;86.80;;;;;;5016497;28;87369;-60
2024/02/07 12:43:12;;;;;;;;;;;6.90;86.70;;;;;;5017157;28;86922;-61
2024/02/07 12:45:38;;;;;;;;;;;6.90;86.70;;;;;;5016977;28;87903;-60
2024/02/07 12:48:04;;;;;;;;;;;6.90;86.80;;;;;;5017225;28;86170;-60
2024/02/07 12:50:30;;;;;;;;;;;7.00;86.70;;;;;;5017404;28;86937;-60
2024/02/07 12:52:55;;;;;;;;;;;7.00;86.80;;;;;;5015909;28;87253;-60
2024/02/07 12:55:21;;;;;;;;;;;7.00;86.90;;;;;;5014193;28;88535;-61
2024/02/07 12:57:46;;;;;;;;;;;7.00;87.00;;;;;;5017326;28;87019;-60
2024/02/07 13:00:12;;;;;;;;;;;7.00;87.00;;;;;;5016510;28;86986;-60
2024/02/07 13:02:45;;;;;;;;;;;7.00;87.10;;;;;;5012766;28;87006;-60
2024/02/07 13:05:10;;;;;;;;;;;7.00;87.00;;;;;;5015999;28;86904;-60
2024/02/07 13:07:36;;;;;;;;;;;7.10;87.10;;;;;;5017666;28;86799;-60
2024/02/07 13:10:01;;;;;;;;;;;7.00;87.20;;;;;;5015756;28;87612;-58
2024/02/07 13:12:27;;;;;;;;;;;7.10;87.10;;;;;;5011369;28;86256;-60
2024/02/07 13:14:53;;;;;;;;;;;7.10;87.20;;;;;;5017241;28;87213;-60
2024/02/07 13:17:18;;;;;;;;;;;7.10;87.00;;;;;;5012266;28;87018;-60
2024/02/07 13:19:44;;;;;;;;;;;7.10;87.20;;;;;;5017142;28;88002;-60
2024/02/07 13:22:13;;;;;;;;;;;7.10;87.20;;;;;;5016939;28;87415;-60
2024/02/07 13:24:39;;;;;;;;;;;7.10;87.30;;;;;;5011140;28;87939;-59
2024/02/07 13:27:05;;;;;;;;;;;7.20;86.90;;;;;;5013482;28;87398;-60
2024/02/07 13:29:30;;;;;;;;;;;7.20;87.50;;;;;;5014087;28;87489;-60
2024/02/07 13:31:56;;;;;;;;;;;7.20;86.90;;;;;;5011054;28;87107;-60
2024/02/07 13:34:21;;;;;;;;;;;7.20;86.90;;;;;;5017621;28;87410;-60
2024/02/07 13:36:47;;;;;;;;;;;7.20;86.80;;;;;;5011812;28;86398;-60
2024/02/07 13:39:13;;;;;;;;;;;7.30;86.90;;;;;;5017517;28;87387;-60
2024/02/07 13:41:38;;;;;;;;;;;7.20;87.00;;;;;;5015525;28;87443;-60
2024/02/07 13:44:04;;;;;;;;;;;7.30;87.00;;;;;;5015240;28;88041;-60
2024/02/07 13:46:29;;;;;;;;;;;7.30;87.00;;;;;;5014964;28;87431;-60
2024/02/07 13:48:58;;;;;;;;;;;7.30;87.20;;;;;;5016078;28;86906;-60
2024/02/07 13:51:25;;;;;;;;;;;7.30;86.90;;;;;;5014265;28;87017;-59
2024/02/07 13:53:50;;;;;;;;;;;7.30;87.10;;;;;;5009678;28;88807;-60
2024/02/07 13:56:16;;;;;;;;;;;7.40;87.30;;;;;;5014388;28;87171;-60
2024/02/07 13:58:41;;;;;;;;;;;7.30;87.40;;;;;;5011682;28;87508;-60
2024/02/07 14:01:07;;;;;;;;;;;7.40;87.40;;;;;;5010476;28;86665;-61
2024/02/07 14:03:32;;;;;;;;;;;7.40;87.30;;;;;;5017275;28;87135;-60
2024/02/07 14:05:59;;;;;;;;;;;7.40;87.40;;;;;;5017120;28;87551;-60
2024/02/07 14:08:24;;;;;;;;;;;7.40;87.30;;;;;;5011193;28;87987;-60
2024/02/07 14:10:50;;;;;;;;;;;7.40;87.20;;;;;;5015770;28;89259;-60
2024/02/07 14:13:16;;;;;;;;;;;7.40;87.40;;;;;;5013713;28;87560;-60
2024/02/07 14:15:41;;;;;;;;;;;7.40;87.20;;;;;;5017816;28;87060;-60
2024/02/07 14:18:07;;;;;;;;;;;7.50;87.40;;;;;;5020194;28;86932;-60
2024/02/07 14:20:32;;;;;;;;;;;7.50;87.40;;;;;;5020517;28;87559;-60
2024/02/07 14:22:58;;;;;;;;;;;7.50;87.40;;;;;;5017500;28;87040;-60
2024/02/07 14:25:23;;;;;;;;;;;7.50;87.50;;;;;;5024159;28;86863;-60
2024/02/07 14:27:49;;;;;;;;;;;7.50;87.40;;;;;;5018740;28;86990;-60
2024/02/07 14:30:16;;;;;;;;;;;7.50;87.60;;;;;;5015838;28;89337;-60
2024/02/07 14:32:42;;;;;;;;;;;7.50;87.50;;;;;;5016518;28;89365;-61
2024/02/07 14:35:07;;;;;;;;;;;7.50;87.40;;;;;;5017571;28;87036;-59
2024/02/07 14:37:36;;;;;;;;;;;7.60;87.70;;;;;;5014409;28;88042;-60
2024/02/07 14:40:02;;;;;;;;;;;7.60;87.70;;;;;;5016282;28;87252;-60
2024/02/07 14:42:28;;;;;;;;;;;7.50;87.80;;;;;;5017111;28;86870;-60
2024/02/07 14:44:53;;;;;;;;;;;7.60;87.80;;;;;;5017328;28;86865;-60
2024/02/07 14:47:19;;;;;;;;;;;7.60;87.80;;;;;;5023623;28;88397;-60
2024/02/07 14:49:45;;;;;;;;;;;7.60;87.80;;;;;;5016607;28;88086;-60
2024/02/07 14:52:11;;;;;;;;;;;7.60;87.70;;;;;;5015790;28;88921;-60
2024/02/07 14:54:36;;;;;;;;;;;7.70;87.80;;;;;;5013010;28;87089;-60
2024/02/07 14:57:02;;;;;;;;;;;7.70;87.80;;;;;;5013251;28;87839;-60
2024/02/07 14:59:28;;;;;;;;;;;7.70;87.70;;;;;;5010725;28;87390;-58
2024/02/07 15:01:53;;;;;;;;;;;7.70;87.70;;;;;;5014163;28;86992;-60
2024/02/07 15:04:21;;;;;;;;;;;7.70;87.80;;;;;;5020890;28;87038;-60
2024/02/07 15:06:46;;;;;;;;;;;7.70;87.70;;;;;;5014282;28;87562;-60
2024/02/07 15:09:12;;;;;;;;;;;7.70;87.80;;;;;;5023686;28;87576;-60
2024/02/07 15:11:37;;;;;;;;;;;7.70;87.70;;;;;;5016354;28;87697;-60
2024/02/07 15:14:03;;;;;;;;;;;7.70;87.60;;;;;;5015056;28;86384;-60
2024/02/07 15:16:28;;;;;;;;;;;7.70;87.70;;;;;;5017648;28;87630;-59
2024/02/07 15:18:54;;;;;;;;;;;7.70;88.30;;;;;;5013580;28;87515;-60
2024/02/07 15:21:20;;;;;;;;;;;7.70;87.70;;;;;;5015011;28;88135;-60
2024/02/07 15:23:45;;;;;;;;;;;7.80;87.80;;;;;;5014488;28;87944;-60
2024/02/07 15:26:11;;;;;;;;;;;7.80;87.60;;;;;;5014940;28;88532;-60
2024/02/07 15:28:36;;;;;;;;;;;7.80;87.60;;;;;;5019286;28;87020;-60
2024/02/07 15:31:02;;;;;;;;;;;7.80;87.50;;;;;;5017915;28;86919;-60
2024/02/07 15:33:33;;;;;;;;;;;7.80;87.60;;;;;;5020366;28;86837;-60
2024/02/07 15:35:58;;;;;;;;;;;7.80;87.70;;;;;;5016779;28;87748;-60
2024/02/07 15:38:24;;;;;;;;;;;7.90;87.70;;;;;;5019960;28;86756;-60